sensor_id;sensor_type;location;lat;lon;timestamp;P1;durP1;ratioP1;P2;durP2;ratioP2
74939;SDS011;63505;45.226;37.908;2022-10-31T00:00:57;12.38;;;5.20;;
74939;SDS011;63505;45.226;37.908;2022-10-31T00:03:24;11.68;;;4.68;;
74939;SDS011;63505;45.226;37.908;2022-10-31T00:05:51;16.15;;;5.78;;
74939;SDS011;63505;45.226;37.908;2022-10-31T00:08:18;8.38;;;5.00;;
74939;SDS011;63505;45.226;37.908;2022-10-31T00:10:44;12.60;;;6.40;;
74939;SDS011;63505;45.226;37.908;2022-10-31T00:13:12;11.60;;;6.05;;
74939;SDS011;63505;45.226;37.908;2022-10-31T00:15:39;11.38;;;6.97;;
74939;SDS011;63505;45.226;37.908;2022-10-31T00:18:06;13.07;;;6.70;;
74939;SDS011;63505;45.226;37.908;2022-10-31T00:20:33;13.07;;;7.38;;
74939;SDS011;63505;45.226;37.908;2022-10-31T00:22:59;15.75;;;7.40;;
74939;SDS011;63505;45.226;37.908;2022-10-31T00:25:27;18.75;;;7.22;;
74939;SDS011;63505;45.226;37.908;2022-10-31T00:27:54;17.52;;;6.28;;
74939;SDS011;63505;45.226;37.908;2022-10-31T00:30:20;21.45;;;8.20;;
74939;SDS011;63505;45.226;37.908;2022-10-31T00:32:46;19.85;;;8.35;;
74939;SDS011;63505;45.226;37.908;2022-10-31T00:35:12;19.98;;;9.63;;
74939;SDS011;63505;45.226;37.908;2022-10-31T00:37:38;18.98;;;9.43;;
74939;SDS011;63505;45.226;37.908;2022-10-31T00:40:04;24.88;;;11.07;;
74939;SDS011;63505;45.226;37.908;2022-10-31T00:42:30;29.27;;;10.48;;
74939;SDS011;63505;45.226;37.908;2022-10-31T00:44:57;22.17;;;10.57;;
74939;SDS011;63505;45.226;37.908;2022-10-31T00:47:23;24.80;;;11.15;;
74939;SDS011;63505;45.226;37.908;2022-10-31T00:49:49;27.17;;;9.63;;
74939;SDS011;63505;45.226;37.908;2022-10-31T00:52:15;15.00;;;7.18;;
74939;SDS011;63505;45.226;37.908;2022-10-31T00:54:41;14.57;;;5.78;;
74939;SDS011;63505;45.226;37.908;2022-10-31T00:57:07;12.73;;;4.72;;
74939;SDS011;63505;45.226;37.908;2022-10-31T00:59:33;10.38;;;5.10;;
74939;SDS011;63505;45.226;37.908;2022-10-31T01:01:59;12.07;;;4.78;;
74939;SDS011;63505;45.226;37.908;2022-10-31T01:04:25;9.02;;;3.75;;
74939;SDS011;63505;45.226;37.908;2022-10-31T01:06:51;9.02;;;4.30;;
74939;SDS011;63505;45.226;37.908;2022-10-31T01:09:17;8.07;;;3.85;;
74939;SDS011;63505;45.226;37.908;2022-10-31T01:11:43;14.45;;;4.70;;
74939;SDS011;63505;45.226;37.908;2022-10-31T01:14:09;11.85;;;4.50;;
74939;SDS011;63505;45.226;37.908;2022-10-31T01:16:35;9.68;;;3.80;;
74939;SDS011;63505;45.226;37.908;2022-10-31T01:19:01;9.50;;;3.92;;
74939;SDS011;63505;45.226;37.908;2022-10-31T01:21:28;8.07;;;3.70;;
74939;SDS011;63505;45.226;37.908;2022-10-31T01:23:57;9.23;;;4.50;;
74939;SDS011;63505;45.226;37.908;2022-10-31T01:26:28;9.93;;;4.22;;
74939;SDS011;63505;45.226;37.908;2022-10-31T01:29:03;8.10;;;4.13;;
74939;SDS011;63505;45.226;37.908;2022-10-31T01:31:33;9.80;;;4.28;;
74939;SDS011;63505;45.226;37.908;2022-10-31T01:34:00;9.65;;;3.83;;
74939;SDS011;63505;45.226;37.908;2022-10-31T01:39:02;6.82;;;3.80;;
74939;SDS011;63505;45.226;37.908;2022-10-31T01:41:32;8.45;;;3.63;;
74939;SDS011;63505;45.226;37.908;2022-10-31T01:44:03;9.07;;;3.78;;
74939;SDS011;63505;45.226;37.908;2022-10-31T01:46:57;7.93;;;3.50;;
74939;SDS011;63505;45.226;37.908;2022-10-31T01:52:32;11.18;;;4.35;;
74939;SDS011;63505;45.226;37.908;2022-10-31T01:57:48;8.95;;;4.55;;
74939;SDS011;63505;45.226;37.908;2022-10-31T02:02:44;16.17;;;4.78;;
74939;SDS011;63505;45.226;37.908;2022-10-31T02:05:19;12.10;;;4.78;;
74939;SDS011;63505;45.226;37.908;2022-10-31T02:08:03;11.85;;;5.13;;
74939;SDS011;63505;45.226;37.908;2022-10-31T02:10:34;9.40;;;5.00;;
74939;SDS011;63505;45.226;37.908;2022-10-31T02:13:02;16.27;;;5.93;;
74939;SDS011;63505;45.226;37.908;2022-10-31T02:15:35;13.32;;;6.22;;
74939;SDS011;63505;45.226;37.908;2022-10-31T02:18:03;12.63;;;6.25;;
74939;SDS011;63505;45.226;37.908;2022-10-31T02:20:36;17.98;;;6.72;;
74939;SDS011;63505;45.226;37.908;2022-10-31T02:23:20;13.00;;;6.50;;
74939;SDS011;63505;45.226;37.908;2022-10-31T02:29:04;15.68;;;7.85;;
74939;SDS011;63505;45.226;37.908;2022-10-31T02:32:21;15.85;;;8.25;;
74939;SDS011;63505;45.226;37.908;2022-10-31T02:34:57;16.83;;;9.43;;
74939;SDS011;63505;45.226;37.908;2022-10-31T02:46:10;20.23;;;8.45;;
74939;SDS011;63505;45.226;37.908;2022-10-31T02:48:42;18.25;;;8.65;;
74939;SDS011;63505;45.226;37.908;2022-10-31T02:51:11;20.83;;;8.90;;
74939;SDS011;63505;45.226;37.908;2022-10-31T02:53:38;18.38;;;8.07;;
74939;SDS011;63505;45.226;37.908;2022-10-31T02:56:17;20.60;;;9.27;;
74939;SDS011;63505;45.226;37.908;2022-10-31T02:58:46;24.77;;;10.43;;
74939;SDS011;63505;45.226;37.908;2022-10-31T03:06:33;18.17;;;10.82;;
74939;SDS011;63505;45.226;37.908;2022-10-31T03:12:04;21.88;;;10.57;;
74939;SDS011;63505;45.226;37.908;2022-10-31T03:17:25;30.15;;;11.18;;
74939;SDS011;63505;45.226;37.908;2022-10-31T03:19:58;20.38;;;10.80;;
74939;SDS011;63505;45.226;37.908;2022-10-31T03:22:28;21.13;;;10.77;;
74939;SDS011;63505;45.226;37.908;2022-10-31T03:24:57;20.55;;;10.50;;
74939;SDS011;63505;45.226;37.908;2022-10-31T03:27:27;31.48;;;11.48;;
74939;SDS011;63505;45.226;37.908;2022-10-31T03:29:58;22.08;;;11.93;;
74939;SDS011;63505;45.226;37.908;2022-10-31T03:32:32;21.35;;;10.90;;
74939;SDS011;63505;45.226;37.908;2022-10-31T03:35:03;20.52;;;11.35;;
74939;SDS011;63505;45.226;37.908;2022-10-31T03:37:33;21.73;;;12.52;;
74939;SDS011;63505;45.226;37.908;2022-10-31T03:40:09;21.52;;;12.20;;
74939;SDS011;63505;45.226;37.908;2022-10-31T03:42:39;24.50;;;12.13;;
74939;SDS011;63505;45.226;37.908;2022-10-31T03:47:41;19.27;;;10.20;;
74939;SDS011;63505;45.226;37.908;2022-10-31T03:50:09;43.97;;;15.82;;
74939;SDS011;63505;45.226;37.908;2022-10-31T03:52:49;29.42;;;14.60;;
74939;SDS011;63505;45.226;37.908;2022-10-31T03:55:31;28.30;;;13.52;;
74939;SDS011;63505;45.226;37.908;2022-10-31T03:58:22;26.58;;;14.23;;
74939;SDS011;63505;45.226;37.908;2022-10-31T04:00:54;29.10;;;15.02;;
74939;SDS011;63505;45.226;37.908;2022-10-31T04:03:25;30.90;;;14.65;;
74939;SDS011;63505;45.226;37.908;2022-10-31T04:06:00;31.52;;;13.82;;
74939;SDS011;63505;45.226;37.908;2022-10-31T04:08:31;32.40;;;15.68;;
74939;SDS011;63505;45.226;37.908;2022-10-31T04:11:05;38.10;;;15.43;;
74939;SDS011;63505;45.226;37.908;2022-10-31T04:13:38;29.80;;;14.38;;
74939;SDS011;63505;45.226;37.908;2022-10-31T04:16:13;27.80;;;13.05;;
74939;SDS011;63505;45.226;37.908;2022-10-31T04:18:41;35.63;;;17.00;;
74939;SDS011;63505;45.226;37.908;2022-10-31T04:21:07;34.38;;;17.23;;
74939;SDS011;63505;45.226;37.908;2022-10-31T04:23:34;32.72;;;16.65;;
74939;SDS011;63505;45.226;37.908;2022-10-31T04:26:12;38.17;;;18.45;;
74939;SDS011;63505;45.226;37.908;2022-10-31T04:28:38;32.92;;;17.95;;
74939;SDS011;63505;45.226;37.908;2022-10-31T04:31:04;36.72;;;18.52;;
74939;SDS011;63505;45.226;37.908;2022-10-31T04:36:01;37.28;;;18.75;;
74939;SDS011;63505;45.226;37.908;2022-10-31T04:38:27;43.75;;;21.42;;
74939;SDS011;63505;45.226;37.908;2022-10-31T04:40:53;35.03;;;18.05;;
74939;SDS011;63505;45.226;37.908;2022-10-31T04:43:51;33.75;;;18.70;;
74939;SDS011;63505;45.226;37.908;2022-10-31T04:46:18;37.47;;;18.55;;
74939;SDS011;63505;45.226;37.908;2022-10-31T04:48:44;33.72;;;17.50;;
74939;SDS011;63505;45.226;37.908;2022-10-31T04:51:10;40.42;;;18.35;;
74939;SDS011;63505;45.226;37.908;2022-10-31T04:53:36;29.42;;;15.73;;
74939;SDS011;63505;45.226;37.908;2022-10-31T04:56:20;32.95;;;17.17;;
74939;SDS011;63505;45.226;37.908;2022-10-31T04:58:51;31.70;;;16.13;;
74939;SDS011;63505;45.226;37.908;2022-10-31T05:01:17;35.33;;;17.20;;
74939;SDS011;63505;45.226;37.908;2022-10-31T05:03:44;29.00;;;15.93;;
74939;SDS011;63505;45.226;37.908;2022-10-31T05:06:10;29.58;;;15.82;;
74939;SDS011;63505;45.226;37.908;2022-10-31T05:08:40;30.83;;;17.50;;
74939;SDS011;63505;45.226;37.908;2022-10-31T05:11:06;27.42;;;17.40;;
74939;SDS011;63505;45.226;37.908;2022-10-31T05:13:33;34.92;;;17.90;;
74939;SDS011;63505;45.226;37.908;2022-10-31T05:16:11;29.40;;;17.70;;
74939;SDS011;63505;45.226;37.908;2022-10-31T05:18:39;29.38;;;16.67;;
74939;SDS011;63505;45.226;37.908;2022-10-31T05:21:23;33.58;;;19.15;;
74939;SDS011;63505;45.226;37.908;2022-10-31T05:23:53;29.05;;;16.05;;
74939;SDS011;63505;45.226;37.908;2022-10-31T05:28:47;28.50;;;15.85;;
74939;SDS011;63505;45.226;37.908;2022-10-31T05:31:13;33.72;;;18.05;;
74939;SDS011;63505;45.226;37.908;2022-10-31T05:33:40;34.75;;;17.73;;
74939;SDS011;63505;45.226;37.908;2022-10-31T05:36:09;31.33;;;16.08;;
74939;SDS011;63505;45.226;37.908;2022-10-31T05:38:52;27.55;;;15.07;;
74939;SDS011;63505;45.226;37.908;2022-10-31T05:41:33;29.45;;;16.35;;
74939;SDS011;63505;45.226;37.908;2022-10-31T05:44:13;34.78;;;15.63;;
74939;SDS011;63505;45.226;37.908;2022-10-31T05:47:11;29.33;;;14.52;;
74939;SDS011;63505;45.226;37.908;2022-10-31T05:49:56;23.05;;;13.77;;
74939;SDS011;63505;45.226;37.908;2022-10-31T05:52:42;20.35;;;11.30;;
74939;SDS011;63505;45.226;37.908;2022-10-31T05:55:34;26.15;;;14.60;;
74939;SDS011;63505;45.226;37.908;2022-10-31T05:58:20;20.73;;;10.02;;
74939;SDS011;63505;45.226;37.908;2022-10-31T06:01:04;18.73;;;11.35;;
74939;SDS011;63505;45.226;37.908;2022-10-31T06:03:31;21.98;;;12.65;;
74939;SDS011;63505;45.226;37.908;2022-10-31T06:06:00;20.48;;;10.68;;
74939;SDS011;63505;45.226;37.908;2022-10-31T06:08:33;23.23;;;13.27;;
74939;SDS011;63505;45.226;37.908;2022-10-31T06:11:03;20.42;;;11.75;;
74939;SDS011;63505;45.226;37.908;2022-10-31T06:13:52;22.10;;;11.32;;
74939;SDS011;63505;45.226;37.908;2022-10-31T06:16:23;18.05;;;12.38;;
74939;SDS011;63505;45.226;37.908;2022-10-31T06:18:49;20.48;;;12.40;;
74939;SDS011;63505;45.226;37.908;2022-10-31T06:21:16;22.13;;;11.60;;
74939;SDS011;63505;45.226;37.908;2022-10-31T06:23:42;21.30;;;11.55;;
74939;SDS011;63505;45.226;37.908;2022-10-31T06:26:29;15.85;;;10.02;;
74939;SDS011;63505;45.226;37.908;2022-10-31T06:28:54;22.48;;;12.05;;
74939;SDS011;63505;45.226;37.908;2022-10-31T06:31:53;19.75;;;11.93;;
74939;SDS011;63505;45.226;37.908;2022-10-31T06:34:19;19.10;;;9.82;;
74939;SDS011;63505;45.226;37.908;2022-10-31T06:36:45;22.60;;;11.43;;
74939;SDS011;63505;45.226;37.908;2022-10-31T06:39:12;20.50;;;10.35;;
74939;SDS011;63505;45.226;37.908;2022-10-31T06:41:39;21.25;;;9.27;;
74939;SDS011;63505;45.226;37.908;2022-10-31T06:44:09;18.63;;;9.93;;
74939;SDS011;63505;45.226;37.908;2022-10-31T06:46:53;20.88;;;9.10;;
74939;SDS011;63505;45.226;37.908;2022-10-31T06:49:34;13.77;;;9.52;;
74939;SDS011;63505;45.226;37.908;2022-10-31T06:52:06;13.00;;;7.03;;
74939;SDS011;63505;45.226;37.908;2022-10-31T06:54:32;13.98;;;9.07;;
74939;SDS011;63505;45.226;37.908;2022-10-31T06:56:58;16.60;;;9.13;;
74939;SDS011;63505;45.226;37.908;2022-10-31T06:59:24;13.30;;;8.27;;
74939;SDS011;63505;45.226;37.908;2022-10-31T07:02:16;14.25;;;7.82;;
74939;SDS011;63505;45.226;37.908;2022-10-31T07:04:42;15.60;;;8.70;;
74939;SDS011;63505;45.226;37.908;2022-10-31T07:07:11;19.13;;;8.55;;
74939;SDS011;63505;45.226;37.908;2022-10-31T07:09:38;14.00;;;8.15;;
74939;SDS011;63505;45.226;37.908;2022-10-31T07:12:06;11.95;;;6.38;;
74939;SDS011;63505;45.226;37.908;2022-10-31T07:14:36;14.60;;;6.88;;
74939;SDS011;63505;45.226;37.908;2022-10-31T07:17:02;14.13;;;7.47;;
74939;SDS011;63505;45.226;37.908;2022-10-31T07:19:34;18.45;;;8.88;;
74939;SDS011;63505;45.226;37.908;2022-10-31T07:22:01;13.48;;;9.45;;
74939;SDS011;63505;45.226;37.908;2022-10-31T07:24:28;12.60;;;8.07;;
74939;SDS011;63505;45.226;37.908;2022-10-31T07:27:14;16.02;;;6.28;;
74939;SDS011;63505;45.226;37.908;2022-10-31T07:29:41;9.95;;;6.20;;
74939;SDS011;63505;45.226;37.908;2022-10-31T07:32:07;11.68;;;6.55;;
74939;SDS011;63505;45.226;37.908;2022-10-31T07:34:36;7.75;;;5.22;;
74939;SDS011;63505;45.226;37.908;2022-10-31T07:37:17;10.05;;;5.80;;
74939;SDS011;63505;45.226;37.908;2022-10-31T07:39:43;11.52;;;6.60;;
74939;SDS011;63505;45.226;37.908;2022-10-31T07:42:09;12.02;;;6.18;;
74939;SDS011;63505;45.226;37.908;2022-10-31T07:44:42;7.05;;;5.05;;
74939;SDS011;63505;45.226;37.908;2022-10-31T07:47:26;11.27;;;4.80;;
74939;SDS011;63505;45.226;37.908;2022-10-31T07:50:25;6.65;;;3.85;;
74939;SDS011;63505;45.226;37.908;2022-10-31T07:53:12;7.38;;;4.38;;
74939;SDS011;63505;45.226;37.908;2022-10-31T07:56:05;8.05;;;3.88;;
74939;SDS011;63505;45.226;37.908;2022-10-31T07:58:33;8.13;;;3.15;;
74939;SDS011;63505;45.226;37.908;2022-10-31T08:00:58;8.90;;;3.95;;
74939;SDS011;63505;45.226;37.908;2022-10-31T08:03:33;5.68;;;3.30;;
74939;SDS011;63505;45.226;37.908;2022-10-31T08:06:01;7.15;;;3.40;;
74939;SDS011;63505;45.226;37.908;2022-10-31T08:08:53;6.20;;;3.15;;
74939;SDS011;63505;45.226;37.908;2022-10-31T08:11:19;5.90;;;3.28;;
74939;SDS011;63505;45.226;37.908;2022-10-31T08:13:46;8.15;;;3.10;;
74939;SDS011;63505;45.226;37.908;2022-10-31T08:16:13;6.45;;;2.88;;
74939;SDS011;63505;45.226;37.908;2022-10-31T08:18:49;6.95;;;3.25;;
74939;SDS011;63505;45.226;37.908;2022-10-31T08:21:16;10.80;;;4.47;;
74939;SDS011;63505;45.226;37.908;2022-10-31T08:23:43;6.32;;;3.72;;
74939;SDS011;63505;45.226;37.908;2022-10-31T08:26:09;5.60;;;3.20;;
74939;SDS011;63505;45.226;37.908;2022-10-31T08:28:36;5.10;;;2.70;;
74939;SDS011;63505;45.226;37.908;2022-10-31T08:31:02;8.32;;;2.80;;
74939;SDS011;63505;45.226;37.908;2022-10-31T08:33:40;5.95;;;2.45;;
74939;SDS011;63505;45.226;37.908;2022-10-31T08:36:29;4.97;;;2.83;;
74939;SDS011;63505;45.226;37.908;2022-10-31T08:39:21;6.65;;;2.80;;
74939;SDS011;63505;45.226;37.908;2022-10-31T08:41:48;8.68;;;2.30;;
74939;SDS011;63505;45.226;37.908;2022-10-31T08:44:16;7.32;;;2.15;;
74939;SDS011;63505;45.226;37.908;2022-10-31T08:46:42;7.05;;;2.55;;
74939;SDS011;63505;45.226;37.908;2022-10-31T08:49:08;6.93;;;2.08;;
74939;SDS011;63505;45.226;37.908;2022-10-31T08:51:34;4.18;;;2.38;;
74939;SDS011;63505;45.226;37.908;2022-10-31T08:54:00;4.45;;;1.98;;
74939;SDS011;63505;45.226;37.908;2022-10-31T08:56:32;7.13;;;2.00;;
74939;SDS011;63505;45.226;37.908;2022-10-31T08:59:00;3.13;;;1.92;;
74939;SDS011;63505;45.226;37.908;2022-10-31T09:01:44;6.88;;;1.83;;
74939;SDS011;63505;45.226;37.908;2022-10-31T09:04:10;3.40;;;1.90;;
74939;SDS011;63505;45.226;37.908;2022-10-31T09:06:37;7.30;;;1.95;;
74939;SDS011;63505;45.226;37.908;2022-10-31T09:09:03;3.72;;;1.83;;
74939;SDS011;63505;45.226;37.908;2022-10-31T09:11:30;9.43;;;2.00;;
74939;SDS011;63505;45.226;37.908;2022-10-31T09:14:16;4.45;;;1.85;;
74939;SDS011;63505;45.226;37.908;2022-10-31T09:17:01;5.15;;;1.52;;
74939;SDS011;63505;45.226;37.908;2022-10-31T09:19:46;5.45;;;1.77;;
74939;SDS011;63505;45.226;37.908;2022-10-31T09:22:12;7.32;;;1.88;;
74939;SDS011;63505;45.226;37.908;2022-10-31T09:24:38;5.90;;;2.00;;
74939;SDS011;63505;45.226;37.908;2022-10-31T09:27:04;4.22;;;1.90;;
74939;SDS011;63505;45.226;37.908;2022-10-31T09:29:31;5.95;;;1.70;;
74939;SDS011;63505;45.226;37.908;2022-10-31T09:31:59;4.28;;;1.90;;
74939;SDS011;63505;45.226;37.908;2022-10-31T09:34:29;4.60;;;1.58;;
74939;SDS011;63505;45.226;37.908;2022-10-31T09:37:04;3.70;;;1.65;;
74939;SDS011;63505;45.226;37.908;2022-10-31T09:39:29;5.63;;;2.10;;
74939;SDS011;63505;45.226;37.908;2022-10-31T09:50:47;6.22;;;2.53;;
74939;SDS011;63505;45.226;37.908;2022-10-31T09:53:55;4.05;;;2.03;;
74939;SDS011;63505;45.226;37.908;2022-10-31T09:56:43;4.20;;;1.70;;
74939;SDS011;63505;45.226;37.908;2022-10-31T09:59:11;5.25;;;2.55;;
74939;SDS011;63505;45.226;37.908;2022-10-31T10:02:00;3.95;;;1.83;;
74939;SDS011;63505;45.226;37.908;2022-10-31T10:16:27;8.85;;;3.17;;
74939;SDS011;63505;45.226;37.908;2022-10-31T10:22:14;5.78;;;2.22;;
74939;SDS011;63505;45.226;37.908;2022-10-31T10:25:28;4.68;;;2.08;;
74939;SDS011;63505;45.226;37.908;2022-10-31T10:28:08;13.05;;;3.42;;
74939;SDS011;63505;45.226;37.908;2022-10-31T10:30:49;4.82;;;3.00;;
74939;SDS011;63505;45.226;37.908;2022-10-31T10:33:24;7.88;;;2.72;;
74939;SDS011;63505;45.226;37.908;2022-10-31T10:36:03;6.57;;;2.80;;
74939;SDS011;63505;45.226;37.908;2022-10-31T10:41:12;5.80;;;2.72;;
74939;SDS011;63505;45.226;37.908;2022-10-31T10:43:42;12.48;;;3.40;;
74939;SDS011;63505;45.226;37.908;2022-10-31T10:49:18;7.85;;;3.22;;
74939;SDS011;63505;45.226;37.908;2022-10-31T10:52:00;9.48;;;3.92;;
74939;SDS011;63505;45.226;37.908;2022-10-31T10:57:14;8.82;;;4.05;;
74939;SDS011;63505;45.226;37.908;2022-10-31T10:59:45;7.68;;;4.70;;
74939;SDS011;63505;45.226;37.908;2022-10-31T11:02:24;10.60;;;4.22;;
74939;SDS011;63505;45.226;37.908;2022-10-31T11:04:52;8.80;;;4.13;;
74939;SDS011;63505;45.226;37.908;2022-10-31T11:07:20;8.73;;;4.57;;
74939;SDS011;63505;45.226;37.908;2022-10-31T11:09:47;7.65;;;4.15;;
74939;SDS011;63505;45.226;37.908;2022-10-31T11:14:54;7.72;;;5.15;;
74939;SDS011;63505;45.226;37.908;2022-10-31T11:22:38;12.93;;;4.97;;
74939;SDS011;63505;45.226;37.908;2022-10-31T11:27:44;6.55;;;3.55;;
74939;SDS011;63505;45.226;37.908;2022-10-31T11:30:12;6.38;;;3.65;;
74939;SDS011;63505;45.226;37.908;2022-10-31T11:32:43;5.47;;;3.63;;
74939;SDS011;63505;45.226;37.908;2022-10-31T11:35:15;8.65;;;3.67;;
74939;SDS011;63505;45.226;37.908;2022-10-31T11:37:44;6.55;;;2.70;;
74939;SDS011;63505;45.226;37.908;2022-10-31T11:40:16;5.20;;;2.17;;
74939;SDS011;63505;45.226;37.908;2022-10-31T11:42:45;5.28;;;2.63;;
74939;SDS011;63505;45.226;37.908;2022-10-31T11:45:27;7.65;;;2.60;;
74939;SDS011;63505;45.226;37.908;2022-10-31T11:47:56;4.15;;;1.90;;
74939;SDS011;63505;45.226;37.908;2022-10-31T11:50:47;4.50;;;2.20;;
74939;SDS011;63505;45.226;37.908;2022-10-31T11:53:17;6.55;;;3.33;;
74939;SDS011;63505;45.226;37.908;2022-10-31T11:55:46;7.35;;;3.08;;
74939;SDS011;63505;45.226;37.908;2022-10-31T11:58:21;4.53;;;1.65;;
74939;SDS011;63505;45.226;37.908;2022-10-31T12:00:49;6.45;;;2.58;;
74939;SDS011;63505;45.226;37.908;2022-10-31T12:05:59;5.32;;;2.40;;
74939;SDS011;63505;45.226;37.908;2022-10-31T12:08:36;7.03;;;2.30;;
74939;SDS011;63505;45.226;37.908;2022-10-31T12:22:46;9.32;;;2.70;;
74939;SDS011;63505;45.226;37.908;2022-10-31T12:25:02;13.25;;;2.03;;
74939;SDS011;63505;45.226;37.908;2022-10-31T12:27:47;6.15;;;2.00;;
74939;SDS011;63505;45.226;37.908;2022-10-31T12:30:22;6.65;;;2.42;;
74939;SDS011;63505;45.226;37.908;2022-10-31T12:38:15;3.53;;;2.03;;
74939;SDS011;63505;45.226;37.908;2022-10-31T12:50:51;5.85;;;2.30;;
74939;SDS011;63505;45.226;37.908;2022-10-31T12:56:04;7.13;;;2.70;;
74939;SDS011;63505;45.226;37.908;2022-10-31T12:58:55;7.38;;;3.05;;
74939;SDS011;63505;45.226;37.908;2022-10-31T13:01:29;4.22;;;2.30;;
74939;SDS011;63505;45.226;37.908;2022-10-31T13:04:35;5.43;;;2.78;;
74939;SDS011;63505;45.226;37.908;2022-10-31T13:07:28;7.22;;;3.85;;
74939;SDS011;63505;45.226;37.908;2022-10-31T13:12:25;10.85;;;2.92;;
74939;SDS011;63505;45.226;37.908;2022-10-31T13:14:54;7.38;;;2.42;;
74939;SDS011;63505;45.226;37.908;2022-10-31T13:17:32;6.35;;;2.42;;
74939;SDS011;63505;45.226;37.908;2022-10-31T13:23:03;6.57;;;2.88;;
74939;SDS011;63505;45.226;37.908;2022-10-31T13:25:38;6.60;;;2.75;;
74939;SDS011;63505;45.226;37.908;2022-10-31T13:33:32;5.05;;;2.72;;
74939;SDS011;63505;45.226;37.908;2022-10-31T13:36:18;6.40;;;2.63;;
74939;SDS011;63505;45.226;37.908;2022-10-31T13:44:23;7.60;;;2.58;;
74939;SDS011;63505;45.226;37.908;2022-10-31T13:46:51;5.63;;;2.35;;
74939;SDS011;63505;45.226;37.908;2022-10-31T13:54:43;6.88;;;2.47;;
74939;SDS011;63505;45.226;37.908;2022-10-31T13:57:16;7.70;;;2.60;;
74939;SDS011;63505;45.226;37.908;2022-10-31T13:59:46;7.32;;;2.20;;
74939;SDS011;63505;45.226;37.908;2022-10-31T14:02:25;6.10;;;2.72;;
74939;SDS011;63505;45.226;37.908;2022-10-31T14:04:59;6.18;;;2.65;;
74939;SDS011;63505;45.226;37.908;2022-10-31T14:07:28;6.00;;;2.35;;
74939;SDS011;63505;45.226;37.908;2022-10-31T14:10:05;8.95;;;2.80;;
74939;SDS011;63505;45.226;37.908;2022-10-31T14:12:45;6.70;;;2.85;;
74939;SDS011;63505;45.226;37.908;2022-10-31T14:22:58;12.85;;;9.20;;
74939;SDS011;63505;45.226;37.908;2022-10-31T14:25:36;13.88;;;7.57;;
74939;SDS011;63505;45.226;37.908;2022-10-31T14:28:05;7.85;;;4.03;;
74939;SDS011;63505;45.226;37.908;2022-10-31T14:30:54;6.18;;;3.03;;
74939;SDS011;63505;45.226;37.908;2022-10-31T14:33:23;8.98;;;3.58;;
74939;SDS011;63505;45.226;37.908;2022-10-31T14:49:20;6.38;;;3.70;;
74939;SDS011;63505;45.226;37.908;2022-10-31T14:52:07;6.07;;;2.92;;
74939;SDS011;63505;45.226;37.908;2022-10-31T14:54:41;8.32;;;3.38;;
74939;SDS011;63505;45.226;37.908;2022-10-31T15:00:19;7.88;;;3.50;;
74939;SDS011;63505;45.226;37.908;2022-10-31T15:05:41;8.77;;;3.60;;
74939;SDS011;63505;45.226;37.908;2022-10-31T15:08:31;5.90;;;2.78;;
74939;SDS011;63505;45.226;37.908;2022-10-31T15:11:13;7.20;;;3.40;;
74939;SDS011;63505;45.226;37.908;2022-10-31T15:16:18;7.53;;;3.28;;
74939;SDS011;63505;45.226;37.908;2022-10-31T15:21:24;8.05;;;2.60;;
74939;SDS011;63505;45.226;37.908;2022-10-31T15:23:54;5.60;;;3.38;;
74939;SDS011;63505;45.226;37.908;2022-10-31T15:26:29;6.82;;;4.15;;
74939;SDS011;63505;45.226;37.908;2022-10-31T15:29:01;9.23;;;3.33;;
74939;SDS011;63505;45.226;37.908;2022-10-31T15:31:28;7.55;;;3.33;;
74939;SDS011;63505;45.226;37.908;2022-10-31T15:33:58;5.38;;;3.17;;
74939;SDS011;63505;45.226;37.908;2022-10-31T15:36:28;6.95;;;3.55;;
74939;SDS011;63505;45.226;37.908;2022-10-31T15:38:55;7.45;;;3.88;;
74939;SDS011;63505;45.226;37.908;2022-10-31T15:41:23;6.25;;;3.65;;
74939;SDS011;63505;45.226;37.908;2022-10-31T15:44:21;7.93;;;4.93;;
74939;SDS011;63505;45.226;37.908;2022-10-31T15:46:57;8.65;;;4.32;;
74939;SDS011;63505;45.226;37.908;2022-10-31T15:49:31;9.90;;;3.53;;
74939;SDS011;63505;45.226;37.908;2022-10-31T15:52:08;6.85;;;3.70;;
74939;SDS011;63505;45.226;37.908;2022-10-31T15:54:44;7.80;;;3.72;;
74939;SDS011;63505;45.226;37.908;2022-10-31T15:57:19;7.00;;;3.75;;
74939;SDS011;63505;45.226;37.908;2022-10-31T15:59:46;7.10;;;3.72;;
74939;SDS011;63505;45.226;37.908;2022-10-31T16:02:14;7.40;;;3.22;;
74939;SDS011;63505;45.226;37.908;2022-10-31T16:04:52;5.57;;;2.67;;
74939;SDS011;63505;45.226;37.908;2022-10-31T16:07:18;8.15;;;2.53;;
74939;SDS011;63505;45.226;37.908;2022-10-31T16:09:49;3.92;;;2.13;;
74939;SDS011;63505;45.226;37.908;2022-10-31T16:12:30;5.82;;;2.05;;
74939;SDS011;63505;45.226;37.908;2022-10-31T16:15:00;4.93;;;1.95;;
74939;SDS011;63505;45.226;37.908;2022-10-31T16:17:27;3.58;;;1.13;;
74939;SDS011;63505;45.226;37.908;2022-10-31T16:19:58;2.72;;;1.25;;
74939;SDS011;63505;45.226;37.908;2022-10-31T16:22:36;4.28;;;1.10;;
74939;SDS011;63505;45.226;37.908;2022-10-31T16:25:08;3.78;;;1.45;;
74939;SDS011;63505;45.226;37.908;2022-10-31T16:27:37;4.57;;;1.10;;
74939;SDS011;63505;45.226;37.908;2022-10-31T16:33:22;5.35;;;1.30;;
74939;SDS011;63505;45.226;37.908;2022-10-31T16:35:54;1.88;;;0.88;;
74939;SDS011;63505;45.226;37.908;2022-10-31T16:38:21;4.38;;;1.00;;
74939;SDS011;63505;45.226;37.908;2022-10-31T16:40:48;2.92;;;0.95;;
74939;SDS011;63505;45.226;37.908;2022-10-31T16:43:15;3.83;;;1.27;;
74939;SDS011;63505;45.226;37.908;2022-10-31T16:45:45;5.18;;;1.33;;
74939;SDS011;63505;45.226;37.908;2022-10-31T16:48:17;3.85;;;1.50;;
74939;SDS011;63505;45.226;37.908;2022-10-31T16:50:49;4.32;;;0.80;;
74939;SDS011;63505;45.226;37.908;2022-10-31T16:53:15;6.82;;;1.38;;
74939;SDS011;63505;45.226;37.908;2022-10-31T16:55:44;3.15;;;1.40;;
74939;SDS011;63505;45.226;37.908;2022-10-31T17:01:00;4.10;;;1.65;;
74939;SDS011;63505;45.226;37.908;2022-10-31T17:03:29;4.32;;;1.40;;
74939;SDS011;63505;45.226;37.908;2022-10-31T17:05:55;4.38;;;1.15;;
74939;SDS011;63505;45.226;37.908;2022-10-31T17:08:22;3.53;;;2.55;;
74939;SDS011;63505;45.226;37.908;2022-10-31T17:10:52;1.95;;;0.98;;
74939;SDS011;63505;45.226;37.908;2022-10-31T17:13:30;5.13;;;1.30;;
74939;SDS011;63505;45.226;37.908;2022-10-31T17:15:59;4.20;;;1.08;;
74939;SDS011;63505;45.226;37.908;2022-10-31T17:18:27;7.82;;;1.67;;
74939;SDS011;63505;45.226;37.908;2022-10-31T17:20:56;4.93;;;1.80;;
74939;SDS011;63505;45.226;37.908;2022-10-31T17:23:24;4.35;;;1.30;;
74939;SDS011;63505;45.226;37.908;2022-10-31T17:25:50;3.15;;;1.08;;
74939;SDS011;63505;45.226;37.908;2022-10-31T17:28:16;5.10;;;1.30;;
74939;SDS011;63505;45.226;37.908;2022-10-31T17:30:42;4.78;;;1.30;;
74939;SDS011;63505;45.226;37.908;2022-10-31T17:33:12;3.33;;;1.20;;
74939;SDS011;63505;45.226;37.908;2022-10-31T17:35:40;4.65;;;1.15;;
74939;SDS011;63505;45.226;37.908;2022-10-31T17:38:06;2.25;;;1.10;;
74939;SDS011;63505;45.226;37.908;2022-10-31T17:40:32;2.95;;;1.20;;
74939;SDS011;63505;45.226;37.908;2022-10-31T17:42:58;4.30;;;1.38;;
74939;SDS011;63505;45.226;37.908;2022-10-31T17:45:25;3.92;;;1.80;;
74939;SDS011;63505;45.226;37.908;2022-10-31T17:47:51;2.45;;;1.00;;
74939;SDS011;63505;45.226;37.908;2022-10-31T17:50:19;3.45;;;0.95;;
74939;SDS011;63505;45.226;37.908;2022-10-31T17:52:47;3.05;;;1.10;;